createdAt,value
2022-10-19T00:00:15.242Z,12.8
2022-10-19T00:01:17.315Z,12.7
2022-10-19T00:02:19.394Z,12.7
2022-10-19T00:03:22.448Z,12.7
2022-10-19T00:04:23.275Z,12.7
2022-10-19T00:05:25.255Z,12.6
2022-10-19T00:06:27.257Z,12.6
2022-10-19T00:07:29.347Z,12.7
2022-10-19T00:08:31.276Z,12.6
2022-10-19T00:09:33.275Z,12.7
2022-10-19T00:10:35.303Z,12.6
2022-10-19T00:11:37.262Z,12.6
2022-10-19T00:12:39.309Z,12.6
2022-10-19T00:13:41.374Z,12.6
2022-10-19T00:14:43.294Z,12.6
2022-10-19T00:15:45.537Z,12.6
2022-10-19T00:16:47.254Z,12.5
2022-10-19T00:17:49.275Z,12.5
2022-10-19T00:18:51.295Z,12.5
2022-10-19T00:19:53.275Z,12.5
2022-10-19T00:20:55.295Z,12.5
2022-10-19T00:21:57.281Z,12.5
2022-10-19T00:22:59.295Z,12.5
2022-10-19T00:24:01.395Z,12.5
2022-10-19T00:25:03.294Z,12.4
2022-10-19T00:26:05.299Z,12.4
2022-10-19T00:27:07.355Z,12.4
2022-10-19T00:28:09.355Z,12.4
2022-10-19T00:29:11.371Z,12.4
2022-10-19T00:30:13.355Z,12.3
2022-10-19T00:31:15.292Z,12.3
2022-10-19T00:32:17.321Z,12.2
2022-10-19T00:33:19.319Z,12.2
2022-10-19T00:34:21.275Z,12.2
2022-10-19T00:35:23.336Z,12.2
2022-10-19T00:36:25.314Z,12.1
2022-10-19T00:37:27.408Z,12.1
2022-10-19T00:38:29.336Z,12.1
2022-10-19T00:39:31.275Z,12.1
2022-10-19T00:40:33.255Z,12.1
2022-10-19T00:41:35.359Z,12.1
2022-10-19T00:42:37.336Z,12.1
2022-10-19T00:43:39.315Z,12.1
2022-10-19T00:44:41.315Z,12
2022-10-19T00:45:43.304Z,12
2022-10-19T00:46:45.602Z,12
2022-10-19T00:47:47.315Z,11.9
2022-10-19T00:49:51.297Z,11.9
2022-10-19T00:50:53.283Z,11.9
2022-10-19T00:51:54.296Z,12
2022-10-19T00:52:56.315Z,11.9
2022-10-19T00:53:58.303Z,11.9
2022-10-19T00:55:00.336Z,11.9
2022-10-19T00:56:02.295Z,11.8
2022-10-19T00:57:04.340Z,11.8
2022-10-19T00:58:06.315Z,11.8
2022-10-19T00:59:08.322Z,11.8
2022-10-19T01:00:10.333Z,11.8
2022-10-19T01:01:12.352Z,11.8
2022-10-19T01:02:14.315Z,11.8
2022-10-19T01:03:16.335Z,11.8
2022-10-19T01:04:18.335Z,11.7
2022-10-19T01:05:20.356Z,11.7
2022-10-19T01:06:22.317Z,11.8
2022-10-19T01:07:24.314Z,11.7
2022-10-19T01:08:26.335Z,11.8
2022-10-19T01:09:28.414Z,11.8
2022-10-19T01:10:30.336Z,11.8
2022-10-19T01:11:32.295Z,11.8
2022-10-19T01:12:34.358Z,11.9
2022-10-19T01:13:36.374Z,11.9
2022-10-19T01:14:38.315Z,11.9
2022-10-19T01:15:40.341Z,11.9
2022-10-19T01:16:42.315Z,11.9
2022-10-19T01:17:44.332Z,11.9
2022-10-19T01:18:46.275Z,11.9
2022-10-19T01:19:48.550Z,11.9
2022-10-19T01:20:50.266Z,11.9
2022-10-19T01:21:52.294Z,11.9
2022-10-19T01:22:54.326Z,11.9
2022-10-19T01:23:56.335Z,11.9
2022-10-19T01:24:58.335Z,11.8
2022-10-19T01:26:00.298Z,11.8
2022-10-19T01:27:02.395Z,11.8
2022-10-19T01:28:04.383Z,11.8
2022-10-19T01:29:06.404Z,11.7
2022-10-19T01:30:08.354Z,11.6
2022-10-19T01:31:10.377Z,11.6
2022-10-19T01:32:11.315Z,11.6
2022-10-19T01:33:13.314Z,11.6
2022-10-19T01:34:15.299Z,11.7
2022-10-19T01:35:17.394Z,11.7
2022-10-19T01:36:19.355Z,11.7
2022-10-19T01:37:21.354Z,11.7
2022-10-19T01:38:23.355Z,11.7
2022-10-19T01:39:25.315Z,11.8
2022-10-19T01:40:27.371Z,11.8
2022-10-19T01:41:29.315Z,11.8
2022-10-19T01:42:31.328Z,11.8
2022-10-19T01:43:33.389Z,11.8
2022-10-19T01:44:35.354Z,11.9
2022-10-19T01:45:37.314Z,11.9
2022-10-19T01:46:39.336Z,11.9
2022-10-19T01:47:41.335Z,11.9
2022-10-19T01:48:42.335Z,11.9
2022-10-19T01:49:43.342Z,12
2022-10-19T01:50:44.374Z,12
2022-10-19T01:51:45.659Z,12
2022-10-19T01:52:47.335Z,11.9
2022-10-19T01:53:49.414Z,11.9
2022-10-19T01:54:51.314Z,11.9
2022-10-19T01:55:53.324Z,11.9
2022-10-19T01:56:55.355Z,11.9
2022-10-19T01:57:57.302Z,11.9
2022-10-19T01:58:59.378Z,12
2022-10-19T02:00:01.405Z,12
2022-10-19T02:03:52.373Z,12.3
2022-10-19T02:04:54.393Z,12.2
2022-10-19T02:05:56.327Z,12.2
2022-10-19T02:06:58.433Z,12.2
2022-10-19T02:08:00.374Z,12.1
2022-10-19T02:09:02.293Z,12
2022-10-19T02:10:04.425Z,12
2022-10-19T02:11:06.375Z,12.1
2022-10-19T02:12:08.441Z,12
2022-10-19T02:13:10.359Z,12
2022-10-19T02:14:12.399Z,12
2022-10-19T02:15:14.337Z,12
2022-10-19T02:16:16.340Z,12
2022-10-19T02:17:18.375Z,12.1
2022-10-19T02:18:20.343Z,12.2
2022-10-19T02:19:25.368Z,12.2
2022-10-19T02:20:24.334Z,12.2
2022-10-19T02:21:25.398Z,12.3
2022-10-19T02:22:27.454Z,12.3
2022-10-19T02:23:29.333Z,12.3
2022-10-19T02:24:31.373Z,12.3
2022-10-19T02:25:33.355Z,12.3
2022-10-19T02:26:35.347Z,12.2
2022-10-19T02:27:37.383Z,12.2
2022-10-19T02:28:39.362Z,12.2
2022-10-19T02:29:40.438Z,12.2
2022-10-19T02:30:42.435Z,12.1
2022-10-19T02:31:44.341Z,12.2
2022-10-19T02:32:46.373Z,12.2
2022-10-19T02:33:48.356Z,12.1
2022-10-19T02:34:50.434Z,12.1
2022-10-19T02:35:52.335Z,12
2022-10-19T02:36:54.335Z,12
2022-10-19T02:37:56.414Z,12
2022-10-19T02:38:58.357Z,12.1
2022-10-19T02:40:00.502Z,12.2
2022-10-19T02:41:02.375Z,12.3
2022-10-19T02:42:04.394Z,12.3
2022-10-19T02:43:06.353Z,12.3
2022-10-19T02:44:08.398Z,12.3
2022-10-19T02:45:10.508Z,12.2
2022-10-19T02:46:12.353Z,12.3
2022-10-19T02:47:14.400Z,12.2
2022-10-19T02:48:16.373Z,12.2
2022-10-19T02:49:18.415Z,12.3
2022-10-19T02:50:20.422Z,12.3
2022-10-19T02:51:22.321Z,12.3
2022-10-19T02:52:24.494Z,12.2
2022-10-19T02:53:26.415Z,12.2
2022-10-19T02:54:28.398Z,12.2
2022-10-19T02:55:30.423Z,12.2
2022-10-19T02:56:32.518Z,12.3
2022-10-19T02:57:34.579Z,12.2
2022-10-19T02:58:36.487Z,12.2
2022-10-19T02:59:38.393Z,12.1
2022-10-19T03:00:40.467Z,12.1
2022-10-19T03:01:42.370Z,12.2
2022-10-19T03:02:44.354Z,12.2
2022-10-19T03:03:46.480Z,12.3
2022-10-19T03:05:50.425Z,12.4
2022-10-19T03:06:52.419Z,12.4
2022-10-19T03:07:54.436Z,12.4
2022-10-19T03:08:56.473Z,12.3
2022-10-19T03:09:58.401Z,12.3
2022-10-19T03:11:00.376Z,12.4
2022-10-19T03:12:02.354Z,12.3
2022-10-19T03:13:04.425Z,12.3
2022-10-19T03:14:06.393Z,12.2
2022-10-19T03:15:07.397Z,12.2
2022-10-19T03:16:08.406Z,12.2
2022-10-19T03:17:09.413Z,12.2
2022-10-19T03:18:10.415Z,12.1
2022-10-19T03:19:11.414Z,12.1
2022-10-19T03:20:12.421Z,12.1
2022-10-19T03:21:13.420Z,12.1
2022-10-19T03:22:14.338Z,12.1
2022-10-19T03:23:15.394Z,12.1
2022-10-19T03:24:16.382Z,12
2022-10-19T03:25:17.413Z,12
2022-10-19T03:26:19.393Z,12
2022-10-19T03:27:21.373Z,12
2022-10-19T03:28:23.381Z,12
2022-10-19T03:29:25.421Z,12
2022-10-19T03:30:27.422Z,12
2022-10-19T03:31:29.439Z,12
2022-10-19T03:32:31.433Z,12
2022-10-19T03:33:33.433Z,11.9
2022-10-19T03:34:35.380Z,11.9
2022-10-19T03:35:36.374Z,11.8
2022-10-19T03:36:37.413Z,11.8
2022-10-19T03:37:38.373Z,11.8
2022-10-19T03:38:39.461Z,11.9
2022-10-19T03:39:40.433Z,11.8
2022-10-19T03:40:41.395Z,11.8
2022-10-19T03:41:43.393Z,11.8
2022-10-19T03:42:45.813Z,11.8
2022-10-19T03:43:47.446Z,11.8
2022-10-19T03:44:49.417Z,11.8
2022-10-19T03:45:51.379Z,11.8
2022-10-19T03:46:53.406Z,11.8
2022-10-19T03:47:55.394Z,11.7
2022-10-19T03:48:57.381Z,11.7
2022-10-19T03:49:59.395Z,11.7
2022-10-19T03:51:01.514Z,11.7
2022-10-19T03:52:03.330Z,11.7
2022-10-19T03:53:04.433Z,11.7
2022-10-19T03:54:05.393Z,11.7
2022-10-19T03:55:06.434Z,11.7
2022-10-19T03:56:07.416Z,11.6
2022-10-19T03:57:08.399Z,11.6
2022-10-19T03:58:09.396Z,11.6
2022-10-19T03:59:10.436Z,11.6
2022-10-19T04:00:11.453Z,11.6
2022-10-19T04:01:12.488Z,11.6
2022-10-19T04:02:13.437Z,11.6
2022-10-19T04:03:15.441Z,11.6
2022-10-19T04:04:17.421Z,11.6
2022-10-19T04:05:19.373Z,11.6
2022-10-19T04:06:22.075Z,11.6
2022-10-19T04:07:23.373Z,11.6
2022-10-19T04:08:25.381Z,11.6
2022-10-19T04:09:27.373Z,11.6
2022-10-19T04:10:29.353Z,11.6
2022-10-19T04:11:31.456Z,11.6
2022-10-19T04:12:33.394Z,11.5
2022-10-19T04:13:35.434Z,11.5
2022-10-19T04:14:45.751Z,11.4
2022-10-19T04:15:38.414Z,11.4
2022-10-19T04:16:39.443Z,11.4
2022-10-19T04:17:40.478Z,11.4
2022-10-19T04:18:42.407Z,11.3
2022-10-19T04:19:43.469Z,11.4
2022-10-19T04:20:45.935Z,11.4
2022-10-19T04:21:47.358Z,11.4
2022-10-19T04:22:49.413Z,11.5
2022-10-19T04:23:51.362Z,11.4
2022-10-19T04:24:53.374Z,11.3
2022-10-19T04:25:55.393Z,11.2
2022-10-19T04:26:57.482Z,11.2
2022-10-19T04:27:59.443Z,11.3
2022-10-19T04:29:01.556Z,11.2
2022-10-19T04:30:03.498Z,11.2
2022-10-19T04:31:05.400Z,11.2
2022-10-19T04:32:07.437Z,11.2
2022-10-19T04:33:09.459Z,11.3
2022-10-19T04:34:11.414Z,11.3
2022-10-19T04:35:13.415Z,11.3
2022-10-19T04:36:15.433Z,11.4
2022-10-19T04:37:17.466Z,11.4
2022-10-19T04:38:19.463Z,11.4
2022-10-19T04:39:21.434Z,11.4
2022-10-19T04:40:23.453Z,11.5
2022-10-19T04:41:25.413Z,11.4
2022-10-19T04:42:27.435Z,11.3
2022-10-19T04:43:29.508Z,11.3
2022-10-19T04:44:31.514Z,11.3
2022-10-19T04:45:33.456Z,11.4
2022-10-19T04:46:35.414Z,11.3
2022-10-19T04:47:36.671Z,11.3
2022-10-19T04:48:38.439Z,11.3
2022-10-19T04:49:40.453Z,11.2
2022-10-19T04:50:42.457Z,11.1
2022-10-19T04:51:44.420Z,10.9
2022-10-19T04:52:46.453Z,10.9
2022-10-19T04:53:48.420Z,10.8
2022-10-19T04:54:50.395Z,10.8
2022-10-19T04:55:52.453Z,10.7
2022-10-19T04:56:54.434Z,10.7
2022-10-19T04:57:56.473Z,10.7
2022-10-19T04:58:58.432Z,10.7
2022-10-19T05:00:00.502Z,10.7
2022-10-19T05:01:02.444Z,10.7
2022-10-19T05:02:04.454Z,10.8
2022-10-19T05:03:06.493Z,10.7
2022-10-19T05:04:08.459Z,10.7
2022-10-19T05:05:10.513Z,10.7
2022-10-19T05:06:12.434Z,10.7
2022-10-19T05:07:14.514Z,10.6
2022-10-19T05:08:16.414Z,10.6
2022-10-19T05:09:18.355Z,10.6
2022-10-19T05:10:20.533Z,10.7
2022-10-19T05:11:22.442Z,10.7
2022-10-19T05:12:24.457Z,10.7
2022-10-19T05:13:26.494Z,10.7
2022-10-19T05:15:30.474Z,10.7
2022-10-19T05:16:32.418Z,10.8
2022-10-19T05:17:34.621Z,10.9
2022-10-19T05:18:36.496Z,10.8
2022-10-19T05:19:38.439Z,10.7
2022-10-19T05:20:39.399Z,10.6
2022-10-19T05:21:40.474Z,10.6
2022-10-19T05:22:41.424Z,10.5
2022-10-19T05:23:42.536Z,10.4
2022-10-19T05:24:44.466Z,10.5
2022-10-19T05:25:46.414Z,10.5
2022-10-19T05:26:48.474Z,10.4
2022-10-19T05:27:50.421Z,10.3
2022-10-19T05:28:52.521Z,10.3
2022-10-19T05:29:54.441Z,10.3
2022-10-19T05:30:56.455Z,10.4
2022-10-19T05:31:58.474Z,10.4
2022-10-19T05:33:00.533Z,10.4
2022-10-19T05:34:02.851Z,10.6
2022-10-19T05:35:04.452Z,10.6
2022-10-19T05:36:06.415Z,10.5
2022-10-19T05:37:08.433Z,10.5
2022-10-19T05:38:10.440Z,10.4
2022-10-19T05:39:12.464Z,10.4
2022-10-19T05:40:14.434Z,10.4
2022-10-19T05:41:16.400Z,10.5
2022-10-19T05:42:18.457Z,10.5
2022-10-19T05:43:20.494Z,10.4
2022-10-19T05:44:22.478Z,10.5
2022-10-19T05:45:24.459Z,10.5
2022-10-19T05:46:26.463Z,10.6
2022-10-19T05:47:30.178Z,10.6
2022-10-19T05:48:30.541Z,10.7
2022-10-19T05:49:32.463Z,10.8
2022-10-19T05:50:34.518Z,10.8
2022-10-19T05:51:36.456Z,10.8
2022-10-19T05:52:38.475Z,10.8
2022-10-19T05:53:40.700Z,10.9
2022-10-19T05:54:42.455Z,10.9
2022-10-19T05:55:44.494Z,10.8
2022-10-19T05:56:46.002Z,10.8
2022-10-19T05:57:47.493Z,10.8
2022-10-19T05:58:49.483Z,10.8
2022-10-19T05:59:51.494Z,10.9
2022-10-19T06:00:53.442Z,10.9
2022-10-19T06:01:55.554Z,11
2022-10-19T06:02:59.013Z,11
2022-10-19T06:03:59.500Z,10.9
2022-10-19T06:05:00.474Z,10.8
2022-10-19T06:06:01.545Z,10.7
2022-10-19T06:07:02.450Z,10.8
2022-10-19T06:08:03.453Z,10.8
2022-10-19T06:09:04.473Z,10.9
2022-10-19T06:10:06.523Z,10.9
2022-10-19T06:11:08.462Z,11
2022-10-19T06:12:10.465Z,11
2022-10-19T06:13:11.477Z,11.1
2022-10-19T06:14:12.473Z,11.1
2022-10-19T06:15:13.494Z,11.1
2022-10-19T06:16:14.559Z,11.1
2022-10-19T06:17:16.494Z,11.1
2022-10-19T06:18:18.561Z,11
2022-10-19T06:19:20.469Z,10.9
2022-10-19T06:20:22.492Z,10.8
2022-10-19T06:21:24.539Z,10.8
2022-10-19T06:22:25.493Z,10.8
2022-10-19T06:23:26.560Z,10.7
2022-10-19T06:24:28.477Z,10.7
2022-10-19T06:25:30.517Z,10.7
2022-10-19T06:26:32.541Z,10.7
2022-10-19T06:27:34.688Z,10.8
2022-10-19T06:28:36.480Z,10.8
2022-10-19T06:29:38.518Z,10.9
2022-10-19T06:30:40.577Z,10.9
2022-10-19T06:31:42.515Z,10.9
2022-10-19T06:32:44.493Z,10.9
2022-10-19T06:33:48.480Z,10.9
2022-10-19T06:34:50.059Z,10.9
2022-10-19T06:35:50.457Z,11
2022-10-19T06:36:51.510Z,11
2022-10-19T06:37:53.502Z,11
2022-10-19T06:38:55.458Z,11
2022-10-19T06:39:57.634Z,11
2022-10-19T06:40:59.514Z,11.1
2022-10-19T06:42:01.554Z,11.1
2022-10-19T06:43:02.454Z,11
2022-10-19T06:44:03.514Z,11
2022-10-19T06:45:05.559Z,10.9
2022-10-19T06:46:07.515Z,10.9
2022-10-19T06:47:09.560Z,10.9
2022-10-19T06:48:11.503Z,10.8
2022-10-19T06:49:13.535Z,10.7
2022-10-19T06:50:15.534Z,10.5
2022-10-19T06:51:16.475Z,10.5
2022-10-19T06:52:18.518Z,10.5
2022-10-19T06:53:20.473Z,10.5
2022-10-19T06:54:22.454Z,10.4
2022-10-19T06:55:24.476Z,10.5
2022-10-19T06:56:26.474Z,10.6
2022-10-19T06:57:28.536Z,10.6
2022-10-19T06:58:30.522Z,10.5
2022-10-19T06:59:32.613Z,10.5
2022-10-19T07:00:34.543Z,10.6
2022-10-19T07:01:36.554Z,10.7
2022-10-19T07:02:38.574Z,10.6
2022-10-19T07:03:40.534Z,10.6
2022-10-19T07:04:42.501Z,10.5
2022-10-19T07:05:44.474Z,10.5
2022-10-19T07:06:46.469Z,10.7
2022-10-19T07:07:48.550Z,10.8
2022-10-19T07:08:50.527Z,10.8
2022-10-19T07:09:52.541Z,10.8
2022-10-19T07:10:54.502Z,10.8
2022-10-19T07:11:56.494Z,10.9
2022-10-19T07:12:58.606Z,10.9
2022-10-19T07:14:00.577Z,10.9
2022-10-19T07:15:02.617Z,10.8
2022-10-19T07:16:04.479Z,10.7
2022-10-19T07:17:06.490Z,10.8
2022-10-19T07:18:08.502Z,10.8
2022-10-19T07:19:10.575Z,10.8
2022-10-19T07:20:12.626Z,10.9
2022-10-19T07:21:13.510Z,10.9
2022-10-19T07:22:19.804Z,11
2022-10-19T07:23:15.479Z,11
2022-10-19T07:24:16.558Z,11
2022-10-19T07:25:17.601Z,11.1
2022-10-19T07:26:19.514Z,11.2
2022-10-19T07:27:21.533Z,11.2
2022-10-19T07:28:23.500Z,11.3
2022-10-19T07:29:25.552Z,11.3
2022-10-19T07:30:27.554Z,11.4
2022-10-19T07:31:28.497Z,11.4
2022-10-19T07:32:29.515Z,11.5
2022-10-19T07:33:31.556Z,11.5
2022-10-19T07:34:33.594Z,11.6
2022-10-19T07:35:35.513Z,11.6
2022-10-19T07:36:37.555Z,11.7
2022-10-19T07:37:39.515Z,11.6
2022-10-19T07:38:41.597Z,11.6
2022-10-19T07:39:43.535Z,11.5
2022-10-19T07:40:47.242Z,11.4
2022-10-19T07:41:47.505Z,11.4
2022-10-19T07:42:49.514Z,11.5
2022-10-19T07:43:51.593Z,11.5
2022-10-19T07:44:53.626Z,11.5
2022-10-19T07:45:55.513Z,11.6
2022-10-19T07:46:57.542Z,11.5
2022-10-19T07:47:59.493Z,11.4
2022-10-19T07:49:01.575Z,11.2
2022-10-19T07:50:03.573Z,11.1
2022-10-19T07:51:05.593Z,11.2
2022-10-19T07:52:07.594Z,11.2
2022-10-19T07:53:09.601Z,11.2
2022-10-19T07:54:11.539Z,11.2
2022-10-19T07:55:13.573Z,11.2
2022-10-19T07:56:15.515Z,11.2
2022-10-19T07:57:17.593Z,11.2
2022-10-19T07:58:19.633Z,11.3
2022-10-19T07:59:21.579Z,11.3
2022-10-19T08:00:23.634Z,11.4
2022-10-19T08:01:25.542Z,11.4
2022-10-19T08:02:30.757Z,11.4
2022-10-19T08:04:55.852Z,11.3
2022-10-19T08:05:33.639Z,11.4
2022-10-19T08:06:35.657Z,11.4
2022-10-19T08:07:37.534Z,11.4
2022-10-19T08:08:39.654Z,11.4
2022-10-19T08:09:52.508Z,11.5
2022-10-19T08:10:43.505Z,11.5
2022-10-19T08:11:45.577Z,11.5
2022-10-19T08:12:47.521Z,11.6
2022-10-19T08:13:49.574Z,11.5
2022-10-19T08:14:51.514Z,11.4
2022-10-19T08:15:53.594Z,11.3
2022-10-19T08:16:55.554Z,11.2
2022-10-19T08:17:57.514Z,11.1
2022-10-19T08:18:59.571Z,11.1
2022-10-19T08:20:01.586Z,11.1
2022-10-19T08:21:03.676Z,11
2022-10-19T08:22:05.576Z,10.9
2022-10-19T08:23:07.583Z,11
2022-10-19T08:24:09.595Z,11
2022-10-19T08:25:11.586Z,11.1
2022-10-19T08:26:13.613Z,11.2
2022-10-19T08:27:15.601Z,11.2
2022-10-19T08:28:17.554Z,11.2
2022-10-19T08:29:19.594Z,11.2
2022-10-19T08:30:21.647Z,11.2
2022-10-19T08:31:23.602Z,11.2
2022-10-19T08:32:25.576Z,11.2
2022-10-19T08:33:26.614Z,11.3
2022-10-19T08:34:28.580Z,11.4
2022-10-19T08:35:30.644Z,11.3
2022-10-19T08:36:32.738Z,11.2
2022-10-19T08:37:45.001Z,11.1
2022-10-19T08:38:36.619Z,11.2
2022-10-19T08:39:38.555Z,11.1
2022-10-19T08:40:39.566Z,11.2
2022-10-19T08:41:41.613Z,11.1
2022-10-19T08:42:42.570Z,11.2
2022-10-19T08:43:43.575Z,11.2
2022-10-19T08:44:44.554Z,11.3
2022-10-19T08:45:45.623Z,11.4
2022-10-19T08:46:47.537Z,11.6
2022-10-19T08:47:48.542Z,11.8
2022-10-19T08:48:50.593Z,11.9
2022-10-19T08:49:52.554Z,11.9
2022-10-19T08:50:54.582Z,12
2022-10-19T08:51:56.553Z,12.2
2022-10-19T08:52:58.601Z,12.3
2022-10-19T08:53:59.575Z,12.4
2022-10-19T08:55:00.553Z,12.5
2022-10-19T08:56:03.661Z,12.7
2022-10-19T08:57:03.552Z,12.7
2022-10-19T08:58:05.642Z,12.7
2022-10-19T08:59:07.624Z,12.8
2022-10-19T09:00:08.652Z,12.8
2022-10-19T09:01:10.696Z,12.9
2022-10-19T09:02:12.615Z,12.9
2022-10-19T09:03:17.530Z,13
2022-10-19T09:04:16.619Z,13
2022-10-19T09:05:18.599Z,13
2022-10-19T09:06:20.627Z,13
2022-10-19T09:07:22.609Z,12.9
2022-10-19T09:08:24.699Z,12.9
2022-10-19T09:09:26.614Z,12.8
2022-10-19T09:10:28.654Z,12.6
2022-10-19T09:11:30.694Z,12.5
2022-10-19T09:12:32.835Z,12.4
2022-10-19T09:13:41.211Z,12.5
2022-10-19T09:14:36.593Z,12.4
2022-10-19T09:15:38.643Z,12.3
2022-10-19T09:16:40.538Z,12.3
2022-10-19T09:17:42.655Z,12.3
2022-10-19T09:18:44.640Z,12.4
2022-10-19T09:19:46.574Z,12.5
2022-10-19T09:20:47.541Z,12.5
2022-10-19T09:21:48.594Z,12.5
2022-10-19T09:22:50.594Z,12.4
2022-10-19T09:23:52.614Z,12.4
2022-10-19T09:24:54.535Z,12.4
2022-10-19T09:25:56.622Z,12.4
2022-10-19T09:26:58.658Z,12.4
2022-10-19T09:29:02.560Z,12.1
2022-10-19T09:30:04.675Z,12.2
2022-10-19T09:31:06.523Z,12.2
2022-10-19T09:32:07.544Z,12.3
2022-10-19T09:33:10.024Z,12.4
2022-10-19T09:34:09.574Z,12.4
2022-10-19T09:35:10.614Z,12.3
2022-10-19T09:36:18.246Z,12.3
2022-10-19T09:37:17.933Z,12.3
2022-10-19T09:38:13.609Z,12.3
2022-10-19T09:39:15.573Z,12.3
2022-10-19T09:40:16.582Z,12.2
2022-10-19T09:41:18.595Z,12.3
2022-10-19T09:42:20.591Z,12.3
2022-10-19T09:43:22.593Z,12.3
2022-10-19T09:44:23.573Z,12.3
2022-10-19T09:45:24.614Z,12.3
2022-10-19T09:46:25.554Z,12.4
2022-10-19T09:47:26.575Z,12.4
2022-10-19T09:48:27.617Z,12.3
2022-10-19T09:49:29.577Z,12.4
2022-10-19T09:50:31.656Z,12.3
2022-10-19T09:51:33.582Z,12.3
2022-10-19T09:52:35.614Z,12.2
2022-10-19T09:53:37.633Z,12.1
2022-10-19T09:54:39.610Z,12.1
2022-10-19T09:55:40.648Z,12.1
2022-10-19T09:56:42.594Z,12.1
2022-10-19T09:57:44.597Z,12.1
2022-10-19T09:58:46.614Z,12.1
2022-10-19T09:59:48.681Z,12.2
2022-10-19T10:00:50.615Z,12.2
2022-10-19T10:01:52.718Z,12.3
2022-10-19T10:02:54.613Z,12.3
2022-10-19T10:03:56.613Z,12.4
2022-10-19T10:04:58.655Z,12.5
2022-10-19T10:06:00.594Z,12.6
2022-10-19T10:07:02.620Z,12.7
2022-10-19T10:08:04.609Z,12.7
2022-10-19T10:09:06.665Z,12.6
2022-10-19T10:10:08.680Z,12.5
2022-10-19T10:11:09.534Z,12.4
2022-10-19T10:12:10.675Z,12.5
2022-10-19T10:13:11.601Z,12.6
2022-10-19T10:14:12.616Z,12.6
2022-10-19T10:15:13.668Z,12.7
2022-10-19T10:16:14.674Z,12.7
2022-10-19T10:17:16.609Z,12.7
2022-10-19T10:18:18.614Z,12.7
2022-10-19T10:19:23.153Z,12.7
2022-10-19T10:20:22.702Z,12.7
2022-10-19T10:21:25.375Z,12.6
2022-10-19T10:22:26.594Z,12.6
2022-10-19T10:23:28.642Z,12.5
2022-10-19T10:24:30.594Z,12.6
2022-10-19T10:25:31.602Z,12.6
2022-10-19T10:26:33.625Z,12.7
2022-10-19T10:27:35.940Z,12.7
2022-10-19T10:28:37.626Z,12.7
2022-10-19T10:29:39.593Z,12.6
2022-10-19T10:30:41.614Z,12.6
2022-10-19T10:31:43.605Z,12.5
2022-10-19T10:32:47.237Z,12.7
2022-10-19T10:33:47.766Z,12.8
2022-10-19T10:34:52.134Z,12.9
2022-10-19T10:35:51.602Z,13
2022-10-19T10:36:53.703Z,13.1
2022-10-19T10:37:55.614Z,13.3
2022-10-19T10:38:57.631Z,13.5
2022-10-19T10:40:01.719Z,13.6
2022-10-19T10:41:01.699Z,13.7
2022-10-19T10:42:03.633Z,13.8
2022-10-19T10:43:05.665Z,13.9
2022-10-19T10:44:07.708Z,14
2022-10-19T10:45:09.633Z,14.1
2022-10-19T10:46:11.622Z,14.4
2022-10-19T10:47:13.694Z,14.5
2022-10-19T10:48:15.617Z,14.7
2022-10-19T10:49:17.694Z,14.6
2022-10-19T10:50:19.641Z,14.6
2022-10-19T10:51:21.693Z,14.5
2022-10-19T10:52:23.580Z,14.3
2022-10-19T10:53:25.753Z,14.2
2022-10-19T10:54:27.620Z,14.2
2022-10-19T10:55:29.715Z,14.1
2022-10-19T10:56:31.682Z,13.9
2022-10-19T10:57:33.620Z,13.9
2022-10-19T10:58:35.653Z,13.8
2022-10-19T10:59:39.354Z,13.8
2022-10-19T11:00:39.654Z,13.8
2022-10-19T11:01:41.802Z,13.6
2022-10-19T11:02:43.678Z,13.6
2022-10-19T11:03:44.619Z,13.5
2022-10-19T11:04:46.406Z,13.5
2022-10-19T11:05:46.695Z,13.6
2022-10-19T11:06:47.695Z,13.7
2022-10-19T11:07:48.582Z,13.7
2022-10-19T11:08:49.634Z,13.6
2022-10-19T11:09:51.613Z,13.6
2022-10-19T11:10:53.634Z,13.6
2022-10-19T11:11:55.598Z,13.5
2022-10-19T11:12:57.593Z,13.4
2022-10-19T11:13:59.643Z,13.5
2022-10-19T11:15:01.679Z,13.5
2022-10-19T11:16:03.683Z,13.5
2022-10-19T11:17:05.654Z,13.5
2022-10-19T11:18:07.674Z,13.4
2022-10-19T11:19:09.654Z,13.4
2022-10-19T11:20:11.823Z,13.3
2022-10-19T11:21:13.683Z,13.2
2022-10-19T11:22:15.663Z,13.2
2022-10-19T11:23:17.695Z,13.2
2022-10-19T11:24:19.661Z,13.2
2022-10-19T11:25:21.621Z,13.2
2022-10-19T11:26:23.734Z,13.3
2022-10-19T11:27:25.633Z,13.4
2022-10-19T11:28:27.698Z,13.5
2022-10-19T11:29:29.634Z,13.5
2022-10-19T11:30:31.742Z,13.5
2022-10-19T11:31:33.674Z,13.4
2022-10-19T11:32:36.003Z,13.4
2022-10-19T11:33:37.678Z,13.3
2022-10-19T11:34:39.663Z,13.3
2022-10-19T11:35:41.601Z,13.2
2022-10-19T11:36:43.748Z,13.1
2022-10-19T11:37:49.983Z,13
2022-10-19T11:38:47.622Z,12.9
2022-10-19T11:39:49.595Z,12.8
2022-10-19T11:41:13.065Z,12.7
2022-10-19T11:41:53.753Z,12.6
2022-10-19T11:42:55.657Z,12.5
2022-10-19T11:43:57.618Z,12.4
2022-10-19T11:44:59.687Z,12.4
2022-10-19T11:46:01.697Z,12.4
2022-10-19T11:47:03.733Z,12.4
2022-10-19T11:48:05.661Z,12.4
2022-10-19T11:49:07.656Z,12.4
2022-10-19T11:51:20.694Z,12.6
2022-10-19T11:52:13.793Z,12.6
2022-10-19T11:53:15.673Z,12.5
2022-10-19T11:54:17.634Z,12.4
2022-10-19T11:55:19.634Z,12.4
2022-10-19T11:56:22.141Z,12.5
2022-10-19T11:57:23.634Z,12.5
2022-10-19T11:58:25.633Z,12.5
2022-10-19T11:59:27.679Z,12.5
2022-10-19T12:00:40.422Z,12.5
2022-10-19T12:01:31.676Z,12.5
2022-10-19T12:02:33.985Z,12.6
2022-10-19T12:03:35.615Z,12.6
2022-10-19T12:04:37.611Z,12.6
2022-10-19T12:05:38.693Z,12.7
2022-10-19T12:06:39.654Z,12.8
2022-10-19T12:07:40.649Z,12.8
2022-10-19T12:08:41.906Z,12.8
2022-10-19T12:09:43.675Z,12.8
2022-10-19T12:10:45.700Z,12.7
2022-10-19T12:11:47.728Z,12.7
2022-10-19T12:12:49.722Z,12.6
2022-10-19T12:13:51.635Z,12.6
2022-10-19T12:14:53.675Z,12.6
2022-10-19T12:15:55.696Z,12.6
2022-10-19T12:16:57.729Z,12.4
2022-10-19T12:17:59.694Z,12.3
2022-10-19T12:19:01.722Z,12.2
2022-10-19T12:20:03.753Z,12.2
2022-10-19T12:21:05.736Z,12.2
2022-10-19T12:22:07.623Z,12.1
2022-10-19T12:23:08.675Z,12.1
2022-10-19T12:24:09.673Z,12.1
2022-10-19T12:25:10.815Z,12.1
2022-10-19T12:26:12.696Z,12
2022-10-19T12:27:14.699Z,12
2022-10-19T12:28:16.781Z,11.8
2022-10-19T12:29:18.661Z,11.8
2022-10-19T12:30:20.751Z,11.9
2022-10-19T12:31:22.674Z,12
2022-10-19T12:32:24.700Z,12.1
2022-10-19T12:33:26.698Z,12.1
2022-10-19T12:34:28.654Z,12
2022-10-19T12:35:30.693Z,12
2022-10-19T12:36:32.684Z,12
2022-10-19T12:37:34.967Z,12
2022-10-19T12:38:38.659Z,12.1
2022-10-19T12:39:38.643Z,12.1
2022-10-19T12:40:40.683Z,12.1
2022-10-19T12:41:42.709Z,12.2
2022-10-19T12:42:44.692Z,12.2
2022-10-19T12:43:46.774Z,12.3
2022-10-19T12:44:48.666Z,12.4
2022-10-19T12:45:50.714Z,12.4
2022-10-19T12:46:53.750Z,12.4
2022-10-19T12:47:54.740Z,12.4
2022-10-19T12:48:56.676Z,12.5
2022-10-19T12:49:58.743Z,12.5
2022-10-19T12:51:01.011Z,12.6
2022-10-19T12:52:02.712Z,12.6
2022-10-19T12:53:04.806Z,12.7
2022-10-19T12:54:06.661Z,12.6
2022-10-19T12:55:08.774Z,12.5
2022-10-19T12:56:10.692Z,12.4
2022-10-19T12:57:12.694Z,12.3
2022-10-19T12:58:14.664Z,12.3
2022-10-19T12:59:16.695Z,12.4
2022-10-19T13:00:18.699Z,12.4
2022-10-19T13:01:20.754Z,12.3
2022-10-19T13:02:22.735Z,12.3
2022-10-19T13:03:26.225Z,12.2
2022-10-19T13:04:26.670Z,12.1
2022-10-19T13:05:28.653Z,12.1
2022-10-19T13:06:30.707Z,12.1
2022-10-19T13:07:33.006Z,12.1
2022-10-19T13:08:34.735Z,12.2
2022-10-19T13:09:36.678Z,12.2
2022-10-19T13:10:38.721Z,12.2
2022-10-19T13:11:40.783Z,12.4
2022-10-19T13:12:42.718Z,12.4
2022-10-19T13:13:44.713Z,12.3
2022-10-19T13:14:46.738Z,12.4
2022-10-19T13:15:48.698Z,12.3
2022-10-19T13:16:51.215Z,12.3
2022-10-19T13:17:52.770Z,12.3
2022-10-19T13:18:54.819Z,12.3
2022-10-19T13:19:56.791Z,12.3
2022-10-19T13:20:59.733Z,12.2
2022-10-19T13:22:00.876Z,12.1
2022-10-19T13:23:02.760Z,12
2022-10-19T13:24:04.717Z,11.9
2022-10-19T13:25:06.775Z,11.8
2022-10-19T13:26:08.701Z,11.9
2022-10-19T13:27:10.816Z,11.8
2022-10-19T13:28:12.727Z,11.9
2022-10-19T13:29:14.794Z,11.9
2022-10-19T13:30:16.813Z,11.9
2022-10-19T13:31:18.774Z,12
2022-10-19T13:32:20.715Z,12
2022-10-19T13:33:22.712Z,12
2022-10-19T13:34:24.796Z,12.1
2022-10-19T13:35:25.742Z,12.2
2022-10-19T13:36:27.854Z,12.2
2022-10-19T13:37:33.918Z,12.2
2022-10-19T13:38:31.843Z,12.1
2022-10-19T13:39:33.777Z,12
2022-10-19T13:40:34.736Z,12
2022-10-19T13:41:36.733Z,12.1
2022-10-19T13:42:38.881Z,12.1
2022-10-19T13:43:40.714Z,12.1
2022-10-19T13:44:42.652Z,12.1
2022-10-19T13:45:44.881Z,12.1
2022-10-19T13:46:46.683Z,12.1
2022-10-19T13:47:48.717Z,12.1
2022-10-19T13:48:50.762Z,12.1
2022-10-19T13:49:52.803Z,12.1
2022-10-19T13:50:54.742Z,12.1
2022-10-19T13:51:56.746Z,12.2
2022-10-19T13:52:58.774Z,12.4
2022-10-19T13:54:00.794Z,12.6
2022-10-19T13:55:02.775Z,12.7
2022-10-19T13:56:04.655Z,12.7